sensor_id;sensor_type;location;lat;lon;timestamp;P1;durP1;ratioP1;P2;durP2;ratioP2
15065;SDS011;7632;64.944;20.038;2023-09-19T00:00:55;2.33;;;1.13;;
15065;SDS011;7632;64.944;20.038;2023-09-19T00:03:23;4.80;;;1.90;;
15065;SDS011;7632;64.944;20.038;2023-09-19T00:05:52;2.10;;;1.33;;
15065;SDS011;7632;64.944;20.038;2023-09-19T00:08:18;1.90;;;1.20;;
15065;SDS011;7632;64.944;20.038;2023-09-19T00:10:49;1.87;;;1.20;;
15065;SDS011;7632;64.944;20.038;2023-09-19T00:13:15;3.57;;;1.30;;
15065;SDS011;7632;64.944;20.038;2023-09-19T00:15:44;2.93;;;1.50;;
15065;SDS011;7632;64.944;20.038;2023-09-19T00:18:13;3.40;;;1.47;;
15065;SDS011;7632;64.944;20.038;2023-09-19T00:20:41;2.97;;;1.10;;
15065;SDS011;7632;64.944;20.038;2023-09-19T00:23:09;2.17;;;1.50;;
15065;SDS011;7632;64.944;20.038;2023-09-19T00:25:36;4.07;;;1.20;;
15065;SDS011;7632;64.944;20.038;2023-09-19T00:28:03;2.40;;;1.10;;
15065;SDS011;7632;64.944;20.038;2023-09-19T00:30:32;1.40;;;1.10;;
15065;SDS011;7632;64.944;20.038;2023-09-19T00:32:59;2.83;;;1.30;;
15065;SDS011;7632;64.944;20.038;2023-09-19T00:35:28;1.90;;;1.30;;
15065;SDS011;7632;64.944;20.038;2023-09-19T00:37:56;3.27;;;1.30;;
15065;SDS011;7632;64.944;20.038;2023-09-19T00:40:24;1.70;;;1.27;;
15065;SDS011;7632;64.944;20.038;2023-09-19T00:42:51;2.17;;;1.30;;
15065;SDS011;7632;64.944;20.038;2023-09-19T00:45:18;2.50;;;1.20;;
15065;SDS011;7632;64.944;20.038;2023-09-19T00:47:46;2.30;;;1.30;;
15065;SDS011;7632;64.944;20.038;2023-09-19T00:50:16;3.63;;;1.67;;
15065;SDS011;7632;64.944;20.038;2023-09-19T00:52:44;2.97;;;1.20;;
15065;SDS011;7632;64.944;20.038;2023-09-19T00:55:14;2.50;;;1.43;;
15065;SDS011;7632;64.944;20.038;2023-09-19T00:57:46;1.47;;;1.30;;
15065;SDS011;7632;64.944;20.038;2023-09-19T01:00:15;3.73;;;1.30;;
15065;SDS011;7632;64.944;20.038;2023-09-19T01:02:44;1.30;;;1.20;;
15065;SDS011;7632;64.944;20.038;2023-09-19T01:05:11;2.20;;;1.17;;
15065;SDS011;7632;64.944;20.038;2023-09-19T01:07:38;1.63;;;1.30;;
15065;SDS011;7632;64.944;20.038;2023-09-19T01:10:06;1.93;;;1.20;;
15065;SDS011;7632;64.944;20.038;2023-09-19T01:12:42;6.83;;;4.57;;
15065;SDS011;7632;64.944;20.038;2023-09-19T01:15:17;3.23;;;1.43;;
15065;SDS011;7632;64.944;20.038;2023-09-19T01:17:51;1.27;;;1.10;;
15065;SDS011;7632;64.944;20.038;2023-09-19T01:20:35;3.80;;;1.27;;
15065;SDS011;7632;64.944;20.038;2023-09-19T01:23:10;2.53;;;1.40;;
15065;SDS011;7632;64.944;20.038;2023-09-19T01:28:51;3.10;;;1.20;;
15065;SDS011;7632;64.944;20.038;2023-09-19T01:31:24;1.20;;;1.10;;
15065;SDS011;7632;64.944;20.038;2023-09-19T01:33:55;1.20;;;1.10;;
15065;SDS011;7632;64.944;20.038;2023-09-19T01:36:24;2.23;;;1.27;;
15065;SDS011;7632;64.944;20.038;2023-09-19T01:38:52;2.57;;;1.30;;
15065;SDS011;7632;64.944;20.038;2023-09-19T01:41:21;2.83;;;1.20;;
15065;SDS011;7632;64.944;20.038;2023-09-19T01:43:56;1.97;;;1.30;;
15065;SDS011;7632;64.944;20.038;2023-09-19T01:46:33;2.47;;;1.33;;
15065;SDS011;7632;64.944;20.038;2023-09-19T01:49:05;1.63;;;1.13;;
15065;SDS011;7632;64.944;20.038;2023-09-19T01:51:44;2.13;;;1.20;;
15065;SDS011;7632;64.944;20.038;2023-09-19T01:54:26;2.63;;;1.13;;
15065;SDS011;7632;64.944;20.038;2023-09-19T01:56:57;2.00;;;1.20;;
15065;SDS011;7632;64.944;20.038;2023-09-19T01:59:31;6.67;;;1.40;;
15065;SDS011;7632;64.944;20.038;2023-09-19T02:02:06;2.00;;;1.20;;
15065;SDS011;7632;64.944;20.038;2023-09-19T02:04:35;3.27;;;1.30;;
15065;SDS011;7632;64.944;20.038;2023-09-19T02:07:02;2.43;;;1.20;;
15065;SDS011;7632;64.944;20.038;2023-09-19T02:09:30;2.40;;;1.30;;
15065;SDS011;7632;64.944;20.038;2023-09-19T02:12:00;1.30;;;1.10;;
15065;SDS011;7632;64.944;20.038;2023-09-19T02:14:29;7.47;;;3.27;;
15065;SDS011;7632;64.944;20.038;2023-09-19T02:16:56;4.03;;;1.97;;
15065;SDS011;7632;64.944;20.038;2023-09-19T02:19:31;5.37;;;2.37;;
15065;SDS011;7632;64.944;20.038;2023-09-19T02:21:58;5.77;;;1.40;;
15065;SDS011;7632;64.944;20.038;2023-09-19T02:24:28;2.33;;;1.60;;
15065;SDS011;7632;64.944;20.038;2023-09-19T02:26:55;1.77;;;1.37;;
15065;SDS011;7632;64.944;20.038;2023-09-19T02:29:22;1.90;;;1.30;;
15065;SDS011;7632;64.944;20.038;2023-09-19T02:31:49;2.23;;;1.60;;
15065;SDS011;7632;64.944;20.038;2023-09-19T02:34:16;3.00;;;1.27;;
15065;SDS011;7632;64.944;20.038;2023-09-19T02:36:44;3.57;;;1.30;;
15065;SDS011;7632;64.944;20.038;2023-09-19T02:39:11;2.77;;;1.33;;
15065;SDS011;7632;64.944;20.038;2023-09-19T02:41:38;1.90;;;1.00;;
15065;SDS011;7632;64.944;20.038;2023-09-19T02:44:06;3.13;;;1.30;;
15065;SDS011;7632;64.944;20.038;2023-09-19T02:46:33;2.97;;;1.40;;
15065;SDS011;7632;64.944;20.038;2023-09-19T02:49:01;1.37;;;1.23;;
15065;SDS011;7632;64.944;20.038;2023-09-19T02:51:30;3.23;;;1.30;;
15065;SDS011;7632;64.944;20.038;2023-09-19T02:53:58;1.73;;;1.40;;
15065;SDS011;7632;64.944;20.038;2023-09-19T02:56:25;2.13;;;1.30;;
15065;SDS011;7632;64.944;20.038;2023-09-19T02:58:52;2.73;;;1.50;;
15065;SDS011;7632;64.944;20.038;2023-09-19T03:01:20;3.80;;;1.60;;
15065;SDS011;7632;64.944;20.038;2023-09-19T03:03:47;2.43;;;1.30;;
15065;SDS011;7632;64.944;20.038;2023-09-19T03:06:14;4.37;;;1.40;;
15065;SDS011;7632;64.944;20.038;2023-09-19T03:08:41;2.43;;;1.40;;
15065;SDS011;7632;64.944;20.038;2023-09-19T03:11:09;4.63;;;1.30;;
15065;SDS011;7632;64.944;20.038;2023-09-19T03:13:38;2.33;;;1.30;;
15065;SDS011;7632;64.944;20.038;2023-09-19T03:16:05;2.17;;;1.30;;
15065;SDS011;7632;64.944;20.038;2023-09-19T03:18:31;2.83;;;1.40;;
15065;SDS011;7632;64.944;20.038;2023-09-19T03:20:59;3.23;;;1.50;;
15065;SDS011;7632;64.944;20.038;2023-09-19T03:23:27;2.73;;;1.43;;
15065;SDS011;7632;64.944;20.038;2023-09-19T03:25:54;1.47;;;1.20;;
15065;SDS011;7632;64.944;20.038;2023-09-19T03:28:23;1.33;;;1.17;;
15065;SDS011;7632;64.944;20.038;2023-09-19T03:30:57;2.13;;;1.50;;
15065;SDS011;7632;64.944;20.038;2023-09-19T03:33:25;1.90;;;1.30;;
15065;SDS011;7632;64.944;20.038;2023-09-19T03:35:52;1.67;;;1.10;;
15065;SDS011;7632;64.944;20.038;2023-09-19T03:38:19;1.43;;;1.30;;
15065;SDS011;7632;64.944;20.038;2023-09-19T03:40:46;2.07;;;1.30;;
15065;SDS011;7632;64.944;20.038;2023-09-19T03:43:16;3.00;;;1.43;;
15065;SDS011;7632;64.944;20.038;2023-09-19T03:45:45;3.77;;;1.27;;
15065;SDS011;7632;64.944;20.038;2023-09-19T03:48:13;3.90;;;1.47;;
15065;SDS011;7632;64.944;20.038;2023-09-19T03:50:40;4.70;;;1.60;;
15065;SDS011;7632;64.944;20.038;2023-09-19T03:53:09;2.80;;;1.50;;
15065;SDS011;7632;64.944;20.038;2023-09-19T03:55:35;5.80;;;1.60;;
15065;SDS011;7632;64.944;20.038;2023-09-19T03:58:03;3.77;;;1.60;;
15065;SDS011;7632;64.944;20.038;2023-09-19T04:00:30;3.13;;;1.40;;
15065;SDS011;7632;64.944;20.038;2023-09-19T04:02:58;3.67;;;1.50;;
15065;SDS011;7632;64.944;20.038;2023-09-19T04:05:27;7.63;;;1.30;;
15065;SDS011;7632;64.944;20.038;2023-09-19T04:07:54;2.30;;;1.10;;
15065;SDS011;7632;64.944;20.038;2023-09-19T04:10:20;2.37;;;1.47;;
15065;SDS011;7632;64.944;20.038;2023-09-19T04:12:50;3.53;;;1.70;;
15065;SDS011;7632;64.944;20.038;2023-09-19T04:15:18;4.20;;;1.20;;
15065;SDS011;7632;64.944;20.038;2023-09-19T04:17:48;1.70;;;1.13;;
15065;SDS011;7632;64.944;20.038;2023-09-19T04:20:16;2.50;;;1.33;;
15065;SDS011;7632;64.944;20.038;2023-09-19T04:22:44;3.20;;;1.20;;
15065;SDS011;7632;64.944;20.038;2023-09-19T04:25:11;2.63;;;1.30;;
15065;SDS011;7632;64.944;20.038;2023-09-19T04:27:38;2.43;;;1.20;;
15065;SDS011;7632;64.944;20.038;2023-09-19T04:30:05;2.33;;;1.40;;
15065;SDS011;7632;64.944;20.038;2023-09-19T04:32:36;1.17;;;1.00;;
15065;SDS011;7632;64.944;20.038;2023-09-19T04:35:05;3.83;;;1.40;;
15065;SDS011;7632;64.944;20.038;2023-09-19T04:37:35;3.60;;;1.30;;
15065;SDS011;7632;64.944;20.038;2023-09-19T04:40:04;1.97;;;1.33;;
15065;SDS011;7632;64.944;20.038;2023-09-19T04:42:37;1.60;;;1.20;;
15065;SDS011;7632;64.944;20.038;2023-09-19T04:45:05;2.13;;;1.20;;
15065;SDS011;7632;64.944;20.038;2023-09-19T04:47:33;1.67;;;1.40;;
15065;SDS011;7632;64.944;20.038;2023-09-19T04:49:59;4.03;;;1.40;;
15065;SDS011;7632;64.944;20.038;2023-09-19T04:52:26;1.93;;;1.30;;
15065;SDS011;7632;64.944;20.038;2023-09-19T04:54:54;5.50;;;1.43;;
15065;SDS011;7632;64.944;20.038;2023-09-19T04:57:21;3.17;;;1.67;;
15065;SDS011;7632;64.944;20.038;2023-09-19T04:59:47;3.67;;;1.40;;
15065;SDS011;7632;64.944;20.038;2023-09-19T05:02:15;3.80;;;1.33;;
15065;SDS011;7632;64.944;20.038;2023-09-19T05:04:42;3.17;;;1.47;;
15065;SDS011;7632;64.944;20.038;2023-09-19T05:07:08;4.20;;;1.60;;
15065;SDS011;7632;64.944;20.038;2023-09-19T05:09:35;3.43;;;1.43;;
15065;SDS011;7632;64.944;20.038;2023-09-19T05:12:04;5.60;;;1.63;;
15065;SDS011;7632;64.944;20.038;2023-09-19T05:14:31;1.40;;;1.30;;
15065;SDS011;7632;64.944;20.038;2023-09-19T05:16:58;3.60;;;1.50;;
15065;SDS011;7632;64.944;20.038;2023-09-19T05:19:25;4.47;;;1.50;;
15065;SDS011;7632;64.944;20.038;2023-09-19T05:21:52;3.47;;;0.90;;
15065;SDS011;7632;64.944;20.038;2023-09-19T05:24:20;2.97;;;1.70;;
15065;SDS011;7632;64.944;20.038;2023-09-19T05:26:48;3.30;;;1.47;;
15065;SDS011;7632;64.944;20.038;2023-09-19T05:29:16;2.23;;;1.47;;
15065;SDS011;7632;64.944;20.038;2023-09-19T05:31:43;4.03;;;1.37;;
15065;SDS011;7632;64.944;20.038;2023-09-19T05:34:09;2.73;;;1.40;;
15065;SDS011;7632;64.944;20.038;2023-09-19T05:36:36;3.03;;;1.40;;
15065;SDS011;7632;64.944;20.038;2023-09-19T05:39:04;2.97;;;1.60;;
15065;SDS011;7632;64.944;20.038;2023-09-19T05:41:34;3.10;;;1.23;;
15065;SDS011;7632;64.944;20.038;2023-09-19T05:44:01;2.37;;;1.40;;
15065;SDS011;7632;64.944;20.038;2023-09-19T05:46:30;2.73;;;1.40;;
15065;SDS011;7632;64.944;20.038;2023-09-19T05:48:56;3.00;;;1.60;;
15065;SDS011;7632;64.944;20.038;2023-09-19T05:51:23;4.27;;;1.50;;
15065;SDS011;7632;64.944;20.038;2023-09-19T05:53:53;2.10;;;1.47;;
15065;SDS011;7632;64.944;20.038;2023-09-19T05:56:20;2.17;;;1.50;;
15065;SDS011;7632;64.944;20.038;2023-09-19T05:58:47;3.40;;;1.60;;
15065;SDS011;7632;64.944;20.038;2023-09-19T06:01:17;1.80;;;1.40;;
15065;SDS011;7632;64.944;20.038;2023-09-19T06:03:45;2.03;;;1.47;;
15065;SDS011;7632;64.944;20.038;2023-09-19T06:06:11;4.70;;;1.60;;
15065;SDS011;7632;64.944;20.038;2023-09-19T06:08:38;2.10;;;1.70;;
15065;SDS011;7632;64.944;20.038;2023-09-19T06:11:06;3.83;;;1.93;;
15065;SDS011;7632;64.944;20.038;2023-09-19T06:13:34;2.10;;;1.73;;
15065;SDS011;7632;64.944;20.038;2023-09-19T06:16:01;2.50;;;1.70;;
15065;SDS011;7632;64.944;20.038;2023-09-19T06:18:30;2.80;;;1.63;;
15065;SDS011;7632;64.944;20.038;2023-09-19T06:21:00;4.20;;;2.03;;
15065;SDS011;7632;64.944;20.038;2023-09-19T06:23:30;2.53;;;1.80;;
15065;SDS011;7632;64.944;20.038;2023-09-19T06:25:57;4.70;;;1.97;;
15065;SDS011;7632;64.944;20.038;2023-09-19T06:28:24;2.43;;;1.80;;
15065;SDS011;7632;64.944;20.038;2023-09-19T06:30:53;4.37;;;1.83;;
15065;SDS011;7632;64.944;20.038;2023-09-19T06:33:20;4.87;;;1.57;;
15065;SDS011;7632;64.944;20.038;2023-09-19T06:35:47;3.43;;;2.03;;
15065;SDS011;7632;64.944;20.038;2023-09-19T06:38:15;3.67;;;1.87;;
15065;SDS011;7632;64.944;20.038;2023-09-19T06:40:44;2.93;;;1.60;;
15065;SDS011;7632;64.944;20.038;2023-09-19T06:43:11;3.10;;;2.03;;
15065;SDS011;7632;64.944;20.038;2023-09-19T06:45:38;2.73;;;1.80;;
15065;SDS011;7632;64.944;20.038;2023-09-19T06:48:05;3.03;;;1.90;;
15065;SDS011;7632;64.944;20.038;2023-09-19T06:50:32;3.17;;;1.80;;
15065;SDS011;7632;64.944;20.038;2023-09-19T06:52:59;3.40;;;1.77;;
15065;SDS011;7632;64.944;20.038;2023-09-19T06:55:28;2.07;;;1.80;;
15065;SDS011;7632;64.944;20.038;2023-09-19T06:57:57;3.73;;;1.80;;
15065;SDS011;7632;64.944;20.038;2023-09-19T07:00:24;7.13;;;2.00;;
15065;SDS011;7632;64.944;20.038;2023-09-19T07:02:57;5.80;;;2.27;;
15065;SDS011;7632;64.944;20.038;2023-09-19T07:05:26;4.97;;;2.43;;
15065;SDS011;7632;64.944;20.038;2023-09-19T07:07:54;2.43;;;1.90;;
15065;SDS011;7632;64.944;20.038;2023-09-19T07:10:21;6.23;;;2.30;;
15065;SDS011;7632;64.944;20.038;2023-09-19T07:15:24;3.63;;;2.40;;
15065;SDS011;7632;64.944;20.038;2023-09-19T07:17:51;3.17;;;2.37;;
15065;SDS011;7632;64.944;20.038;2023-09-19T07:20:18;3.80;;;2.30;;
15065;SDS011;7632;64.944;20.038;2023-09-19T07:22:45;5.50;;;2.03;;
15065;SDS011;7632;64.944;20.038;2023-09-19T07:25:13;7.53;;;2.73;;
15065;SDS011;7632;64.944;20.038;2023-09-19T07:27:40;2.87;;;1.90;;
15065;SDS011;7632;64.944;20.038;2023-09-19T07:30:09;4.30;;;2.00;;
15065;SDS011;7632;64.944;20.038;2023-09-19T07:32:37;3.40;;;2.10;;
15065;SDS011;7632;64.944;20.038;2023-09-19T07:35:04;3.97;;;2.23;;
15065;SDS011;7632;64.944;20.038;2023-09-19T07:37:32;4.30;;;2.00;;
15065;SDS011;7632;64.944;20.038;2023-09-19T07:39:58;5.13;;;2.40;;
15065;SDS011;7632;64.944;20.038;2023-09-19T07:42:26;4.53;;;1.87;;
15065;SDS011;7632;64.944;20.038;2023-09-19T07:44:53;3.03;;;2.10;;
15065;SDS011;7632;64.944;20.038;2023-09-19T07:47:21;5.30;;;2.20;;
15065;SDS011;7632;64.944;20.038;2023-09-19T07:49:47;2.97;;;2.27;;
15065;SDS011;7632;64.944;20.038;2023-09-19T07:52:21;3.47;;;2.03;;
15065;SDS011;7632;64.944;20.038;2023-09-19T07:54:48;5.73;;;2.60;;
15065;SDS011;7632;64.944;20.038;2023-09-19T07:57:15;5.30;;;2.30;;
15065;SDS011;7632;64.944;20.038;2023-09-19T07:59:41;4.20;;;2.60;;
15065;SDS011;7632;64.944;20.038;2023-09-19T08:02:08;6.27;;;2.10;;
15065;SDS011;7632;64.944;20.038;2023-09-19T08:04:42;5.77;;;2.70;;
15065;SDS011;7632;64.944;20.038;2023-09-19T08:07:08;2.77;;;2.50;;
15065;SDS011;7632;64.944;20.038;2023-09-19T08:09:36;2.63;;;2.10;;
15065;SDS011;7632;64.944;20.038;2023-09-19T08:12:03;2.30;;;2.10;;
15065;SDS011;7632;64.944;20.038;2023-09-19T08:14:33;4.53;;;2.80;;
15065;SDS011;7632;64.944;20.038;2023-09-19T08:17:00;3.97;;;2.60;;
15065;SDS011;7632;64.944;20.038;2023-09-19T08:19:32;6.33;;;2.93;;
15065;SDS011;7632;64.944;20.038;2023-09-19T08:22:01;4.23;;;2.50;;
15065;SDS011;7632;64.944;20.038;2023-09-19T08:24:28;3.80;;;2.40;;
15065;SDS011;7632;64.944;20.038;2023-09-19T08:26:56;4.50;;;3.10;;
15065;SDS011;7632;64.944;20.038;2023-09-19T08:29:24;2.83;;;2.40;;
15065;SDS011;7632;64.944;20.038;2023-09-19T08:31:53;5.80;;;2.90;;
15065;SDS011;7632;64.944;20.038;2023-09-19T08:34:21;3.83;;;2.40;;
15065;SDS011;7632;64.944;20.038;2023-09-19T08:36:48;5.73;;;3.00;;
15065;SDS011;7632;64.944;20.038;2023-09-19T08:39:19;2.93;;;2.50;;
15065;SDS011;7632;64.944;20.038;2023-09-19T08:41:45;4.83;;;2.40;;
15065;SDS011;7632;64.944;20.038;2023-09-19T08:44:12;3.10;;;2.23;;
15065;SDS011;7632;64.944;20.038;2023-09-19T08:46:40;3.40;;;3.10;;
15065;SDS011;7632;64.944;20.038;2023-09-19T08:49:09;2.40;;;2.20;;
15065;SDS011;7632;64.944;20.038;2023-09-19T08:51:47;2.50;;;2.13;;
15065;SDS011;7632;64.944;20.038;2023-09-19T08:54:24;4.30;;;2.70;;
15065;SDS011;7632;64.944;20.038;2023-09-19T08:56:52;3.63;;;2.23;;
15065;SDS011;7632;64.944;20.038;2023-09-19T08:59:21;3.43;;;2.47;;
15065;SDS011;7632;64.944;20.038;2023-09-19T09:01:51;3.47;;;2.30;;
15065;SDS011;7632;64.944;20.038;2023-09-19T09:04:19;3.17;;;2.60;;
15065;SDS011;7632;64.944;20.038;2023-09-19T09:06:48;2.53;;;2.20;;
15065;SDS011;7632;64.944;20.038;2023-09-19T09:09:18;5.57;;;2.60;;
15065;SDS011;7632;64.944;20.038;2023-09-19T09:11:47;5.53;;;2.63;;
15065;SDS011;7632;64.944;20.038;2023-09-19T09:14:15;4.93;;;2.60;;
15065;SDS011;7632;64.944;20.038;2023-09-19T09:16:42;5.03;;;2.20;;
15065;SDS011;7632;64.944;20.038;2023-09-19T09:19:10;3.00;;;2.57;;
15065;SDS011;7632;64.944;20.038;2023-09-19T09:21:39;2.77;;;2.20;;
15065;SDS011;7632;64.944;20.038;2023-09-19T09:26:56;3.40;;;2.20;;
15065;SDS011;7632;64.944;20.038;2023-09-19T09:32:18;2.43;;;2.10;;
15065;SDS011;7632;64.944;20.038;2023-09-19T09:34:46;3.97;;;2.40;;
15065;SDS011;7632;64.944;20.038;2023-09-19T09:37:15;2.73;;;2.23;;
15065;SDS011;7632;64.944;20.038;2023-09-19T09:39:53;3.20;;;2.40;;
15065;SDS011;7632;64.944;20.038;2023-09-19T09:42:31;4.33;;;2.70;;
15065;SDS011;7632;64.944;20.038;2023-09-19T09:45:16;4.43;;;2.57;;
15065;SDS011;7632;64.944;20.038;2023-09-19T09:47:53;4.50;;;2.37;;
15065;SDS011;7632;64.944;20.038;2023-09-19T09:50:24;3.97;;;2.13;;
15065;SDS011;7632;64.944;20.038;2023-09-19T09:52:55;3.03;;;2.47;;
15065;SDS011;7632;64.944;20.038;2023-09-19T09:55:32;3.37;;;2.47;;
15065;SDS011;7632;64.944;20.038;2023-09-19T09:58:28;3.83;;;1.80;;
15065;SDS011;7632;64.944;20.038;2023-09-19T10:00:57;5.50;;;2.60;;
15065;SDS011;7632;64.944;20.038;2023-09-19T10:03:33;3.40;;;2.53;;
15065;SDS011;7632;64.944;20.038;2023-09-19T10:06:05;4.03;;;2.40;;
15065;SDS011;7632;64.944;20.038;2023-09-19T10:08:59;3.30;;;2.07;;
15065;SDS011;7632;64.944;20.038;2023-09-19T10:11:41;4.03;;;2.60;;
15065;SDS011;7632;64.944;20.038;2023-09-19T10:14:11;2.83;;;2.23;;
15065;SDS011;7632;64.944;20.038;2023-09-19T10:16:45;2.70;;;2.50;;
15065;SDS011;7632;64.944;20.038;2023-09-19T10:19:15;4.20;;;2.27;;
15065;SDS011;7632;64.944;20.038;2023-09-19T10:21:43;2.53;;;2.23;;
15065;SDS011;7632;64.944;20.038;2023-09-19T10:24:11;3.20;;;1.93;;
15065;SDS011;7632;64.944;20.038;2023-09-19T10:26:41;5.10;;;2.30;;
15065;SDS011;7632;64.944;20.038;2023-09-19T10:29:11;3.43;;;2.20;;
15065;SDS011;7632;64.944;20.038;2023-09-19T10:31:41;5.80;;;2.50;;
15065;SDS011;7632;64.944;20.038;2023-09-19T10:34:12;2.93;;;2.20;;
15065;SDS011;7632;64.944;20.038;2023-09-19T10:36:41;4.93;;;2.30;;
15065;SDS011;7632;64.944;20.038;2023-09-19T10:39:12;2.37;;;2.17;;
15065;SDS011;7632;64.944;20.038;2023-09-19T10:41:43;3.53;;;2.40;;
15065;SDS011;7632;64.944;20.038;2023-09-19T10:44:19;5.90;;;2.27;;
15065;SDS011;7632;64.944;20.038;2023-09-19T10:46:50;4.43;;;2.53;;
15065;SDS011;7632;64.944;20.038;2023-09-19T10:49:18;2.87;;;2.23;;
15065;SDS011;7632;64.944;20.038;2023-09-19T10:51:45;4.07;;;2.77;;
15065;SDS011;7632;64.944;20.038;2023-09-19T10:54:15;2.90;;;2.40;;
15065;SDS011;7632;64.944;20.038;2023-09-19T10:56:52;2.87;;;2.00;;
15065;SDS011;7632;64.944;20.038;2023-09-19T10:59:25;3.13;;;2.30;;
15065;SDS011;7632;64.944;20.038;2023-09-19T11:01:59;2.27;;;2.07;;
15065;SDS011;7632;64.944;20.038;2023-09-19T11:04:42;2.67;;;2.40;;
15065;SDS011;7632;64.944;20.038;2023-09-19T11:07:11;2.87;;;2.20;;
15065;SDS011;7632;64.944;20.038;2023-09-19T11:09:46;3.00;;;2.70;;
15065;SDS011;7632;64.944;20.038;2023-09-19T11:24:30;3.27;;;2.70;;
15065;SDS011;7632;64.944;20.038;2023-09-19T11:27:12;3.23;;;2.20;;
15065;SDS011;7632;64.944;20.038;2023-09-19T11:29:42;2.90;;;2.60;;
15065;SDS011;7632;64.944;20.038;2023-09-19T11:32:08;3.77;;;2.83;;
15065;SDS011;7632;64.944;20.038;2023-09-19T11:37:59;4.90;;;2.80;;
15065;SDS011;7632;64.944;20.038;2023-09-19T11:40:34;3.03;;;2.73;;
15065;SDS011;7632;64.944;20.038;2023-09-19T11:46:06;4.43;;;2.90;;
15065;SDS011;7632;64.944;20.038;2023-09-19T11:48:33;3.20;;;2.60;;
15065;SDS011;7632;64.944;20.038;2023-09-19T11:51:10;3.10;;;2.80;;
15065;SDS011;7632;64.944;20.038;2023-09-19T11:53:44;2.97;;;2.40;;
15065;SDS011;7632;64.944;20.038;2023-09-19T11:56:14;3.47;;;2.50;;
15065;SDS011;7632;64.944;20.038;2023-09-19T11:58:43;3.07;;;2.60;;
15065;SDS011;7632;64.944;20.038;2023-09-19T12:01:12;3.43;;;2.30;;
15065;SDS011;7632;64.944;20.038;2023-09-19T12:03:45;2.60;;;2.40;;
15065;SDS011;7632;64.944;20.038;2023-09-19T12:06:16;3.40;;;2.77;;
15065;SDS011;7632;64.944;20.038;2023-09-19T12:08:43;3.93;;;2.70;;
15065;SDS011;7632;64.944;20.038;2023-09-19T12:11:12;4.13;;;2.20;;
15065;SDS011;7632;64.944;20.038;2023-09-19T12:13:41;4.73;;;2.97;;
15065;SDS011;7632;64.944;20.038;2023-09-19T12:16:13;2.80;;;2.50;;
15065;SDS011;7632;64.944;20.038;2023-09-19T12:18:41;4.03;;;2.20;;
15065;SDS011;7632;64.944;20.038;2023-09-19T12:23:59;2.10;;;1.73;;
15065;SDS011;7632;64.944;20.038;2023-09-19T12:26:38;4.50;;;2.30;;
15065;SDS011;7632;64.944;20.038;2023-09-19T12:29:10;2.30;;;2.10;;
15065;SDS011;7632;64.944;20.038;2023-09-19T12:31:52;2.20;;;2.00;;
15065;SDS011;7632;64.944;20.038;2023-09-19T12:34:23;2.10;;;1.90;;
15065;SDS011;7632;64.944;20.038;2023-09-19T12:37:06;2.70;;;2.30;;
15065;SDS011;7632;64.944;20.038;2023-09-19T12:39:38;1.70;;;1.60;;
15065;SDS011;7632;64.944;20.038;2023-09-19T12:42:14;2.67;;;1.90;;
15065;SDS011;7632;64.944;20.038;2023-09-19T12:44:42;1.57;;;1.47;;
15065;SDS011;7632;64.944;20.038;2023-09-19T12:47:11;1.83;;;1.70;;
15065;SDS011;7632;64.944;20.038;2023-09-19T12:52:44;3.47;;;1.60;;
15065;SDS011;7632;64.944;20.038;2023-09-19T12:55:22;2.60;;;1.80;;
15065;SDS011;7632;64.944;20.038;2023-09-19T12:58:01;4.50;;;1.20;;
15065;SDS011;7632;64.944;20.038;2023-09-19T13:00:34;6.10;;;1.50;;
15065;SDS011;7632;64.944;20.038;2023-09-19T13:03:09;2.57;;;1.33;;
15065;SDS011;7632;64.944;20.038;2023-09-19T13:05:53;2.40;;;1.57;;
15065;SDS011;7632;64.944;20.038;2023-09-19T13:08:23;1.93;;;1.27;;
15065;SDS011;7632;64.944;20.038;2023-09-19T13:11:02;2.33;;;1.43;;
15065;SDS011;7632;64.944;20.038;2023-09-19T13:13:31;1.40;;;1.30;;
15065;SDS011;7632;64.944;20.038;2023-09-19T13:16:00;2.10;;;1.57;;
15065;SDS011;7632;64.944;20.038;2023-09-19T13:18:29;1.70;;;1.60;;
15065;SDS011;7632;64.944;20.038;2023-09-19T13:21:07;1.40;;;1.30;;
15065;SDS011;7632;64.944;20.038;2023-09-19T13:23:37;1.40;;;1.30;;
15065;SDS011;7632;64.944;20.038;2023-09-19T13:26:04;1.43;;;1.33;;
15065;SDS011;7632;64.944;20.038;2023-09-19T13:28:33;3.80;;;1.60;;
15065;SDS011;7632;64.944;20.038;2023-09-19T13:30:59;1.50;;;1.40;;
15065;SDS011;7632;64.944;20.038;2023-09-19T13:33:26;1.47;;;1.30;;
15065;SDS011;7632;64.944;20.038;2023-09-19T13:35:53;1.53;;;1.20;;
15065;SDS011;7632;64.944;20.038;2023-09-19T13:38:20;1.50;;;1.40;;
15065;SDS011;7632;64.944;20.038;2023-09-19T13:40:48;1.93;;;1.37;;
15065;SDS011;7632;64.944;20.038;2023-09-19T13:43:17;1.60;;;1.30;;
15065;SDS011;7632;64.944;20.038;2023-09-19T13:45:47;1.50;;;1.40;;
15065;SDS011;7632;64.944;20.038;2023-09-19T13:48:15;1.40;;;1.30;;
15065;SDS011;7632;64.944;20.038;2023-09-19T13:50:44;1.20;;;1.10;;
15065;SDS011;7632;64.944;20.038;2023-09-19T13:53:11;1.23;;;1.13;;
15065;SDS011;7632;64.944;20.038;2023-09-19T13:55:38;1.70;;;1.20;;
15065;SDS011;7632;64.944;20.038;2023-09-19T13:58:06;2.57;;;1.27;;
15065;SDS011;7632;64.944;20.038;2023-09-19T14:00:36;1.23;;;1.13;;
15065;SDS011;7632;64.944;20.038;2023-09-19T14:03:03;1.20;;;1.10;;
15065;SDS011;7632;64.944;20.038;2023-09-19T14:05:30;1.50;;;1.40;;
15065;SDS011;7632;64.944;20.038;2023-09-19T14:07:57;1.20;;;1.10;;
15065;SDS011;7632;64.944;20.038;2023-09-19T14:10:24;2.73;;;1.50;;
15065;SDS011;7632;64.944;20.038;2023-09-19T14:12:52;1.03;;;0.93;;
15065;SDS011;7632;64.944;20.038;2023-09-19T14:15:20;1.90;;;1.43;;
15065;SDS011;7632;64.944;20.038;2023-09-19T14:17:54;1.83;;;1.40;;
15065;SDS011;7632;64.944;20.038;2023-09-19T14:20:21;2.93;;;1.47;;
15065;SDS011;7632;64.944;20.038;2023-09-19T14:22:48;1.63;;;1.53;;
15065;SDS011;7632;64.944;20.038;2023-09-19T14:25:15;1.60;;;1.50;;
15065;SDS011;7632;64.944;20.038;2023-09-19T14:27:42;1.30;;;1.13;;
15065;SDS011;7632;64.944;20.038;2023-09-19T14:30:09;3.13;;;1.40;;
15065;SDS011;7632;64.944;20.038;2023-09-19T14:32:38;1.57;;;1.20;;
15065;SDS011;7632;64.944;20.038;2023-09-19T14:35:05;2.57;;;1.50;;
15065;SDS011;7632;64.944;20.038;2023-09-19T14:37:34;1.30;;;1.20;;
15065;SDS011;7632;64.944;20.038;2023-09-19T14:40:03;1.70;;;1.50;;
15065;SDS011;7632;64.944;20.038;2023-09-19T14:42:34;2.43;;;1.30;;
15065;SDS011;7632;64.944;20.038;2023-09-19T14:45:03;2.43;;;1.40;;
15065;SDS011;7632;64.944;20.038;2023-09-19T14:47:31;1.67;;;1.43;;
15065;SDS011;7632;64.944;20.038;2023-09-19T14:50:00;1.30;;;1.20;;
15065;SDS011;7632;64.944;20.038;2023-09-19T14:52:31;2.13;;;1.17;;
15065;SDS011;7632;64.944;20.038;2023-09-19T14:54:58;1.33;;;1.23;;
15065;SDS011;7632;64.944;20.038;2023-09-19T14:57:25;2.27;;;1.40;;
15065;SDS011;7632;64.944;20.038;2023-09-19T14:59:52;2.50;;;1.43;;
15065;SDS011;7632;64.944;20.038;2023-09-19T15:02:19;1.53;;;1.20;;
15065;SDS011;7632;64.944;20.038;2023-09-19T15:04:46;1.50;;;1.13;;
15065;SDS011;7632;64.944;20.038;2023-09-19T15:07:14;2.00;;;1.20;;
15065;SDS011;7632;64.944;20.038;2023-09-19T15:09:41;1.70;;;1.20;;
15065;SDS011;7632;64.944;20.038;2023-09-19T15:12:08;2.70;;;1.07;;
15065;SDS011;7632;64.944;20.038;2023-09-19T15:14:36;1.37;;;1.27;;
15065;SDS011;7632;64.944;20.038;2023-09-19T15:17:03;4.70;;;1.40;;
15065;SDS011;7632;64.944;20.038;2023-09-19T15:19:30;1.63;;;1.00;;
15065;SDS011;7632;64.944;20.038;2023-09-19T15:21:57;1.27;;;1.17;;
15065;SDS011;7632;64.944;20.038;2023-09-19T15:24:25;3.13;;;1.30;;
15065;SDS011;7632;64.944;20.038;2023-09-19T15:26:52;1.30;;;1.20;;
15065;SDS011;7632;64.944;20.038;2023-09-19T15:29:20;1.53;;;1.10;;
15065;SDS011;7632;64.944;20.038;2023-09-19T15:31:48;1.67;;;1.00;;
15065;SDS011;7632;64.944;20.038;2023-09-19T15:34:14;3.47;;;1.30;;
15065;SDS011;7632;64.944;20.038;2023-09-19T15:36:41;1.20;;;1.10;;